createdAt,value
2022-10-22T00:00:51.799Z,7.10
2022-10-22T00:03:38.857Z,8.90
2022-10-22T00:06:11.055Z,9.50
2022-10-22T00:08:42.801Z,9.50
2022-10-22T00:11:17.936Z,10.00
2022-10-22T00:13:50.169Z,7.20
2022-10-22T00:16:21.827Z,7.40
2022-10-22T00:18:53.541Z,6.80
2022-10-22T00:21:25.851Z,10.30
2022-10-22T00:23:57.961Z,6.80
2022-10-22T00:26:29.883Z,7.30
2022-10-22T00:29:01.511Z,7.10
2022-10-22T00:31:33.265Z,7.10
2022-10-22T00:34:05.354Z,8.80
2022-10-22T00:36:36.775Z,6.90
2022-10-22T00:39:08.396Z,8.70
2022-10-22T00:41:40.602Z,6.70
2022-10-22T00:44:43.078Z,10.20
2022-10-22T00:47:15.160Z,7.90
2022-10-22T00:49:47.709Z,9.20
2022-10-22T00:52:19.402Z,21.30
2022-10-22T00:54:52.006Z,15.00
2022-10-22T00:57:23.920Z,12.30
2022-10-22T00:59:58.364Z,9.50
2022-10-22T01:02:30.142Z,10.70
2022-10-22T01:05:02.153Z,16.10
2022-10-22T01:07:36.207Z,16.20
2022-10-22T01:10:17.485Z,41.30
2022-10-22T01:12:58.837Z,19.80
2022-10-22T01:15:38.788Z,26.10
2022-10-22T01:18:18.089Z,21.20
2022-10-22T01:21:15.401Z,13.00
2022-10-22T01:24:17.107Z,27.20
2022-10-22T01:27:01.663Z,28.70
2022-10-22T01:29:40.183Z,16.00
2022-10-22T01:32:16.719Z,14.00
2022-10-22T01:34:52.054Z,8.30
2022-10-22T01:37:27.076Z,9.10
2022-10-22T01:40:01.032Z,10.80
2022-10-22T01:42:32.825Z,17.50
2022-10-22T01:45:11.412Z,15.50
2022-10-22T01:47:57.485Z,9.10
2022-10-22T01:50:43.786Z,8.30
2022-10-22T01:53:37.020Z,8.50
2022-10-22T01:56:24.044Z,7.90
2022-10-22T01:59:04.075Z,8.70
2022-10-22T02:01:43.550Z,7.90
2022-10-22T02:04:20.423Z,8.50
2022-10-22T02:06:56.017Z,8.00
2022-10-22T02:09:30.466Z,9.80
2022-10-22T02:14:45.166Z,9.40
2022-10-22T02:17:20.214Z,9.50
2022-10-22T02:19:56.749Z,9.20
2022-10-22T02:22:29.759Z,12.50
2022-10-22T02:25:01.765Z,8.60
2022-10-22T02:27:39.787Z,10.50
2022-10-22T02:33:00.214Z,7.90
2022-10-22T02:35:32.493Z,9.30
2022-10-22T02:38:05.226Z,9.70
2022-10-22T02:40:37.353Z,9.00
2022-10-22T02:43:09.729Z,8.40
2022-10-22T02:45:43.790Z,9.60
2022-10-22T02:48:15.832Z,8.60
2022-10-22T02:50:47.811Z,9.80
2022-10-22T02:53:19.591Z,10.00
2022-10-22T02:55:51.429Z,8.30
2022-10-22T02:58:23.408Z,8.40
2022-10-22T03:00:55.080Z,8.80
2022-10-22T03:03:27.056Z,8.50
2022-10-22T03:05:58.861Z,8.50
2022-10-22T03:08:30.832Z,7.80
2022-10-22T03:11:02.488Z,7.80
2022-10-22T03:13:34.540Z,8.70
2022-10-22T03:16:06.854Z,7.90
2022-10-22T03:18:38.756Z,8.60
2022-10-22T03:21:16.250Z,8.90
2022-10-22T03:23:49.167Z,9.00
2022-10-22T03:26:21.768Z,9.20
2022-10-22T03:28:54.909Z,9.40
2022-10-22T03:31:26.738Z,10.50
2022-10-22T03:33:59.061Z,7.80
2022-10-22T03:36:30.958Z,9.80
2022-10-22T03:39:03.475Z,9.40
2022-10-22T03:41:35.921Z,8.20
2022-10-22T03:44:08.591Z,9.90
2022-10-22T03:46:40.253Z,9.90
2022-10-22T03:49:11.914Z,8.10
2022-10-22T03:51:44.045Z,8.40
2022-10-22T03:54:16.652Z,10.70
2022-10-22T03:56:48.398Z,9.80
2022-10-22T03:59:20.347Z,9.30
2022-10-22T04:01:52.017Z,8.70
2022-10-22T04:04:24.011Z,11.30
2022-10-22T04:06:55.782Z,9.00
2022-10-22T04:09:27.929Z,8.90
2022-10-22T04:11:59.852Z,9.90
2022-10-22T04:14:31.545Z,9.90
2022-10-22T04:17:03.749Z,9.00
2022-10-22T04:19:36.035Z,8.80
2022-10-22T04:22:07.966Z,10.80
2022-10-22T04:24:39.970Z,9.10
2022-10-22T04:27:11.598Z,11.30
2022-10-22T04:29:44.070Z,10.30
2022-10-22T04:32:16.687Z,9.00
2022-10-22T04:34:48.352Z,9.70
2022-10-22T04:37:20.089Z,10.90
2022-10-22T04:39:52.075Z,10.00
2022-10-22T04:42:23.891Z,9.40
2022-10-22T04:44:55.645Z,10.00
2022-10-22T04:47:27.333Z,10.50
2022-10-22T04:49:58.996Z,8.50
2022-10-22T04:52:32.040Z,9.10
2022-10-22T04:55:03.919Z,10.90
2022-10-22T04:57:35.602Z,9.60
2022-10-22T05:00:09.632Z,9.80
2022-10-22T05:02:44.807Z,15.10
2022-10-22T05:05:16.667Z,13.90
2022-10-22T05:07:48.462Z,21.80
2022-10-22T05:10:20.298Z,11.50
2022-10-22T05:12:52.031Z,18.20
2022-10-22T05:15:23.709Z,16.80
2022-10-22T05:17:55.453Z,14.60
2022-10-22T05:20:27.520Z,14.00
2022-10-22T05:22:59.258Z,14.00
2022-10-22T05:25:31.246Z,11.10
2022-10-22T05:28:03.270Z,11.30
2022-10-22T05:30:35.078Z,11.00
2022-10-22T05:33:07.024Z,10.30
2022-10-22T05:35:38.823Z,12.50
2022-10-22T05:38:10.625Z,10.60
2022-10-22T05:40:42.419Z,16.00
2022-10-22T05:43:14.637Z,12.00
2022-10-22T05:45:46.402Z,11.90
2022-10-22T05:48:18.153Z,11.00
2022-10-22T05:50:50.841Z,14.40
2022-10-22T05:53:22.782Z,9.70
2022-10-22T05:55:54.650Z,11.10
2022-10-22T05:58:28.838Z,10.30
2022-10-22T06:01:06.080Z,10.60
2022-10-22T06:03:37.879Z,10.50
2022-10-22T06:06:18.540Z,10.70
2022-10-22T06:08:52.070Z,10.40
2022-10-22T06:11:25.195Z,11.10
2022-10-22T06:13:56.958Z,9.20
2022-10-22T06:16:31.622Z,11.30
2022-10-22T06:19:03.931Z,9.00
2022-10-22T06:21:38.163Z,12.90
2022-10-22T06:24:11.540Z,10.70
2022-10-22T06:26:43.255Z,11.10
2022-10-22T06:29:15.108Z,10.30
2022-10-22T06:31:47.695Z,12.00
2022-10-22T06:34:20.047Z,10.60
2022-10-22T06:36:52.160Z,10.30
2022-10-22T06:39:24.000Z,12.70
2022-10-22T06:41:55.886Z,10.90
2022-10-22T06:44:27.728Z,12.90
2022-10-22T06:46:59.402Z,13.40
2022-10-22T06:49:31.226Z,14.70
2022-10-22T06:52:03.719Z,11.50
2022-10-22T06:54:35.406Z,13.10
2022-10-22T06:57:07.778Z,12.40
2022-10-22T06:59:40.269Z,11.40
2022-10-22T07:02:12.350Z,11.50
2022-10-22T07:04:44.511Z,12.60
2022-10-22T07:07:16.317Z,13.50
2022-10-22T07:09:50.601Z,12.50
2022-10-22T07:12:23.295Z,13.00
2022-10-22T07:14:55.063Z,13.00
2022-10-22T07:17:26.977Z,13.10
2022-10-22T07:19:58.742Z,14.30
2022-10-22T07:22:30.771Z,13.30
2022-10-22T07:25:06.605Z,17.10
2022-10-22T07:27:40.524Z,16.00
2022-10-22T07:30:13.820Z,21.00
2022-10-22T07:32:47.857Z,13.30
2022-10-22T07:35:19.795Z,11.70
2022-10-22T07:37:51.684Z,13.30
2022-10-22T07:40:23.917Z,16.70
2022-10-22T07:42:55.652Z,15.20
2022-10-22T07:45:27.340Z,16.40
2022-10-22T07:48:00.627Z,16.10
2022-10-22T07:50:32.563Z,15.60
2022-10-22T07:53:04.459Z,18.60
2022-10-22T07:55:36.801Z,18.50
2022-10-22T07:58:08.881Z,12.20
2022-10-22T08:00:40.635Z,14.50
2022-10-22T08:03:14.047Z,15.80
2022-10-22T08:05:49.511Z,11.60
2022-10-22T08:08:22.692Z,14.50
2022-10-22T08:10:58.696Z,12.20
2022-10-22T08:13:31.577Z,14.70
2022-10-22T08:16:03.647Z,14.30
2022-10-22T08:18:35.510Z,15.90
2022-10-22T08:21:07.787Z,18.10
2022-10-22T08:23:40.173Z,14.70
2022-10-22T08:26:12.406Z,16.40
2022-10-22T08:28:44.145Z,11.70
2022-10-22T08:31:15.984Z,13.40
2022-10-22T08:33:47.924Z,11.70
2022-10-22T08:36:19.787Z,14.60
2022-10-22T08:38:51.678Z,12.80
2022-10-22T08:41:25.209Z,13.60
2022-10-22T08:44:17.325Z,13.10
2022-10-22T08:47:21.386Z,13.10
2022-10-22T08:49:57.121Z,13.20
2022-10-22T08:52:29.339Z,12.40
2022-10-22T08:55:03.313Z,13.90
2022-10-22T08:57:52.582Z,19.20
2022-10-22T09:00:32.236Z,14.70
2022-10-22T09:03:17.288Z,12.70
2022-10-22T09:06:03.163Z,16.00
2022-10-22T09:08:36.238Z,14.10
2022-10-22T09:11:15.215Z,15.00
2022-10-22T09:13:49.582Z,15.40
2022-10-22T09:16:25.398Z,15.40
2022-10-22T09:19:11.053Z,13.90
2022-10-22T09:21:52.675Z,13.20
2022-10-22T09:24:35.102Z,15.30
2022-10-22T09:27:14.118Z,13.90
2022-10-22T09:29:48.102Z,16.90
2022-10-22T09:32:20.856Z,12.50
2022-10-22T09:34:56.597Z,14.30
2022-10-22T09:37:31.188Z,13.90
2022-10-22T09:40:06.717Z,15.70
2022-10-22T09:42:38.915Z,17.90
2022-10-22T09:45:20.545Z,17.20
2022-10-22T09:48:04.219Z,16.50
2022-10-22T09:50:45.110Z,16.40
2022-10-22T09:53:19.659Z,17.40
2022-10-22T09:58:28.256Z,18.70
2022-10-22T10:01:02.062Z,13.90
2022-10-22T10:03:35.025Z,14.50
2022-10-22T10:06:07.479Z,15.90
2022-10-22T10:08:39.772Z,17.30
2022-10-22T10:11:17.713Z,16.60
2022-10-22T10:16:43.091Z,13.80
2022-10-22T10:19:28.434Z,13.70
2022-10-22T10:22:14.328Z,15.20
2022-10-22T10:25:03.236Z,16.30
2022-10-22T10:27:39.341Z,11.80
2022-10-22T10:30:17.192Z,12.80
2022-10-22T10:33:03.553Z,14.00
2022-10-22T10:35:43.803Z,13.10
2022-10-22T10:38:31.460Z,14.60
2022-10-22T10:41:14.183Z,13.40
2022-10-22T10:43:55.499Z,14.90
2022-10-22T10:46:37.255Z,14.60
2022-10-22T10:49:16.767Z,13.00
2022-10-22T10:51:55.531Z,13.60
2022-10-22T10:57:23.337Z,14.30
2022-10-22T11:00:06.964Z,11.50
2022-10-22T11:03:16.863Z,14.10
2022-10-22T11:05:54.360Z,16.00
2022-10-22T11:08:31.203Z,14.10
2022-10-22T11:11:07.770Z,14.40
2022-10-22T11:13:44.461Z,13.70
2022-10-22T11:16:22.264Z,13.40
2022-10-22T11:18:59.651Z,13.40
2022-10-22T11:21:40.362Z,14.70
2022-10-22T11:24:18.172Z,15.80
2022-10-22T11:26:54.479Z,16.60
2022-10-22T11:29:32.835Z,12.70
2022-10-22T11:32:07.547Z,13.90
2022-10-22T11:34:46.718Z,14.40
2022-10-22T11:37:20.112Z,14.90
2022-10-22T11:39:55.735Z,13.10
2022-10-22T11:42:36.509Z,13.60
2022-10-22T11:45:29.645Z,15.10
2022-10-22T11:48:16.098Z,17.50
2022-10-22T11:50:52.889Z,15.00
2022-10-22T11:53:33.331Z,14.30
2022-10-22T11:56:26.124Z,16.30
2022-10-22T11:58:57.921Z,16.30
2022-10-22T12:01:40.928Z,15.00
2022-10-22T12:04:24.144Z,13.20
2022-10-22T12:07:01.884Z,14.50
2022-10-22T12:09:41.440Z,16.50
2022-10-22T12:12:17.130Z,15.60
2022-10-22T12:14:59.375Z,15.40
2022-10-22T12:17:32.199Z,16.20
2022-10-22T12:20:08.961Z,16.20
2022-10-22T12:22:41.400Z,14.60
2022-10-22T12:25:22.241Z,15.00
2022-10-22T12:27:57.416Z,16.00
2022-10-22T12:30:34.621Z,17.30
2022-10-22T12:33:08.538Z,18.50
2022-10-22T12:35:47.713Z,20.60
2022-10-22T12:38:21.526Z,19.50
2022-10-22T12:40:56.126Z,19.40
2022-10-22T12:43:30.539Z,18.20
2022-10-22T12:46:02.940Z,24.10
2022-10-22T12:48:39.705Z,22.20
2022-10-22T12:51:16.026Z,47.10
2022-10-22T12:53:50.550Z,121.00
2022-10-22T12:56:26.470Z,102.60
2022-10-22T12:59:02.021Z,47.00
2022-10-22T13:01:38.149Z,111.80
2022-10-22T13:04:32.395Z,122.70
2022-10-22T13:07:22.288Z,38.70
2022-10-22T13:10:01.494Z,104.00
2022-10-22T13:12:39.683Z,249.00
2022-10-22T13:15:38.655Z,78.50
2022-10-22T13:18:20.669Z,70.30
2022-10-22T13:20:58.935Z,55.70
2022-10-22T13:23:32.518Z,47.70
2022-10-22T13:26:14.738Z,38.80
2022-10-22T13:28:53.662Z,29.10
2022-10-22T13:31:32.182Z,64.20
2022-10-22T13:34:11.832Z,81.50
2022-10-22T13:36:46.067Z,81.80
2022-10-22T13:39:20.583Z,188.00
2022-10-22T13:41:52.840Z,89.00
2022-10-22T13:44:24.819Z,93.10
2022-10-22T13:46:56.866Z,74.10
2022-10-22T13:49:28.574Z,63.20
2022-10-22T13:52:01.213Z,61.50
2022-10-22T13:54:33.068Z,56.80
2022-10-22T13:57:07.125Z,46.40
2022-10-22T13:59:38.809Z,38.80
2022-10-22T14:02:14.364Z,37.10
2022-10-22T14:04:46.497Z,35.00
2022-10-22T14:07:18.512Z,32.00
2022-10-22T14:09:50.221Z,30.50
2022-10-22T14:12:22.122Z,33.50
2022-10-22T14:14:54.057Z,33.70
2022-10-22T14:17:26.011Z,29.10
2022-10-22T14:19:57.867Z,31.00
2022-10-22T14:22:30.348Z,31.70
2022-10-22T14:25:02.125Z,33.00
2022-10-22T14:27:34.008Z,30.90
2022-10-22T14:30:07.045Z,30.00
2022-10-22T14:32:39.002Z,27.10
2022-10-22T14:35:14.790Z,27.70
2022-10-22T14:37:46.549Z,25.90
2022-10-22T14:40:20.948Z,27.80
2022-10-22T14:42:52.745Z,28.90
2022-10-22T14:45:26.416Z,23.70
2022-10-22T14:47:58.397Z,30.10
2022-10-22T14:50:30.455Z,28.10
2022-10-22T14:53:02.152Z,28.70
2022-10-22T14:55:33.844Z,27.60
2022-10-22T14:58:05.607Z,28.10
2022-10-22T15:00:38.417Z,26.10
2022-10-22T15:03:10.341Z,26.90
2022-10-22T15:05:45.569Z,27.10
2022-10-22T15:08:17.265Z,28.90
2022-10-22T15:10:58.054Z,29.20
2022-10-22T15:13:31.015Z,32.00
2022-10-22T15:16:03.231Z,34.10
2022-10-22T15:18:35.103Z,36.70
2022-10-22T15:21:13.990Z,35.90
2022-10-22T15:23:45.723Z,38.20
2022-10-22T15:26:18.056Z,36.40
2022-10-22T15:28:49.748Z,38.20
2022-10-22T15:31:45.444Z,34.80
2022-10-22T15:34:21.051Z,31.10
2022-10-22T15:36:54.919Z,36.30
2022-10-22T15:39:27.560Z,33.10
2022-10-22T15:41:59.990Z,42.30
2022-10-22T15:44:33.174Z,38.60
2022-10-22T15:47:06.405Z,41.30
2022-10-22T15:49:41.791Z,41.90
2022-10-22T15:52:13.450Z,45.00
2022-10-22T15:54:45.096Z,36.20
2022-10-22T15:57:16.761Z,32.60
2022-10-22T15:59:50.131Z,34.60
2022-10-22T16:02:21.835Z,50.20
2022-10-22T16:04:53.513Z,52.00
2022-10-22T16:07:25.301Z,51.90
2022-10-22T16:10:01.691Z,48.50
2022-10-22T16:12:33.415Z,39.70
2022-10-22T16:15:05.448Z,34.90
2022-10-22T16:17:37.313Z,50.20
2022-10-22T16:20:10.711Z,55.50
2022-10-22T16:22:42.562Z,53.60
2022-10-22T16:25:14.823Z,44.30
2022-10-22T16:27:49.729Z,46.80
2022-10-22T16:30:21.747Z,49.80
2022-10-22T16:32:53.432Z,40.50
2022-10-22T16:35:25.118Z,43.30
2022-10-22T16:37:57.360Z,38.50
2022-10-22T16:40:29.286Z,39.20
2022-10-22T16:43:00.934Z,32.00
2022-10-22T16:45:32.772Z,37.00
2022-10-22T16:48:04.588Z,43.40
2022-10-22T16:50:39.797Z,39.10
2022-10-22T16:53:11.903Z,36.00
2022-10-22T16:55:43.615Z,32.00
2022-10-22T16:58:15.302Z,31.40
2022-10-22T17:00:47.999Z,35.20
2022-10-22T17:03:19.668Z,40.40
2022-10-22T17:05:51.411Z,34.30
2022-10-22T17:08:23.185Z,29.00
2022-10-22T17:10:54.864Z,31.60
2022-10-22T17:13:26.737Z,32.40
2022-10-22T17:16:04.962Z,35.10
2022-10-22T17:18:41.819Z,34.40
2022-10-22T17:21:14.556Z,36.00
2022-10-22T17:23:46.905Z,30.80
2022-10-22T17:26:20.946Z,39.00
2022-10-22T17:28:53.604Z,35.10
2022-10-22T17:31:26.787Z,32.50
2022-10-22T17:34:00.054Z,32.10
2022-10-22T17:36:35.647Z,33.90
2022-10-22T17:39:09.194Z,33.10
2022-10-22T17:41:40.990Z,30.70
2022-10-22T17:44:14.899Z,29.00
2022-10-22T17:46:49.604Z,32.80
2022-10-22T17:49:22.221Z,34.10
2022-10-22T17:51:54.025Z,34.10
2022-10-22T17:54:25.806Z,35.50
2022-10-22T17:56:57.487Z,31.70
2022-10-22T17:59:29.208Z,33.20
2022-10-22T18:02:02.318Z,32.50
2022-10-22T18:04:34.977Z,33.40
2022-10-22T18:07:06.703Z,35.40
2022-10-22T18:09:39.963Z,33.90
2022-10-22T18:12:13.774Z,32.90
2022-10-22T18:14:45.551Z,32.50
2022-10-22T18:17:17.243Z,81.50
2022-10-22T18:19:50.561Z,92.30
2022-10-22T18:22:22.473Z,65.80
2022-10-22T18:24:54.506Z,32.30
2022-10-22T18:27:26.248Z,27.10
2022-10-22T18:29:57.922Z,29.60
2022-10-22T18:32:29.612Z,26.90
2022-10-22T18:35:01.454Z,27.90
2022-10-22T18:37:36.128Z,25.20
2022-10-22T18:40:13.665Z,26.40
2022-10-22T18:42:46.441Z,25.50
2022-10-22T18:45:18.490Z,29.80
2022-10-22T18:47:50.627Z,27.30
2022-10-22T18:50:22.435Z,28.00
2022-10-22T18:52:54.253Z,26.40
2022-10-22T18:55:25.943Z,30.10
2022-10-22T18:57:57.606Z,28.90
2022-10-22T19:00:29.287Z,28.80
2022-10-22T19:03:01.338Z,29.50
2022-10-22T19:05:33.203Z,25.00
2022-10-22T19:08:04.961Z,26.00
2022-10-22T19:10:38.641Z,25.70
2022-10-22T19:13:10.368Z,25.40
2022-10-22T19:15:42.576Z,27.90
2022-10-22T19:18:16.320Z,27.20
2022-10-22T19:20:49.076Z,29.10
2022-10-22T19:23:20.955Z,27.10
2022-10-22T19:26:02.886Z,29.30
2022-10-22T19:28:34.785Z,28.10
2022-10-22T19:31:10.720Z,28.80
2022-10-22T19:33:43.275Z,28.70
2022-10-22T19:36:16.581Z,30.10
2022-10-22T19:38:49.841Z,31.20
2022-10-22T19:41:22.837Z,28.10
2022-10-22T19:43:56.204Z,25.50
2022-10-22T19:46:29.751Z,22.90
2022-10-22T19:49:03.009Z,23.00
2022-10-22T19:51:35.248Z,22.90
2022-10-22T19:54:10.337Z,20.90
2022-10-22T19:56:43.077Z,24.80
2022-10-22T19:59:14.987Z,24.30
2022-10-22T20:01:46.730Z,26.00
2022-10-22T20:04:19.833Z,26.70
2022-10-22T20:06:51.652Z,24.50
2022-10-22T20:09:25.862Z,24.90
2022-10-22T20:11:57.624Z,23.20
2022-10-22T20:14:29.383Z,22.10
2022-10-22T20:17:01.046Z,24.70
2022-10-22T20:19:33.674Z,22.20
2022-10-22T20:22:05.627Z,21.40
2022-10-22T20:24:37.303Z,22.50
2022-10-22T20:27:09.328Z,21.90
2022-10-22T20:29:41.132Z,21.90
2022-10-22T20:32:13.359Z,24.60
2022-10-22T20:34:45.049Z,21.20
2022-10-22T20:37:16.722Z,22.10
2022-10-22T20:39:49.893Z,21.90
2022-10-22T20:42:21.569Z,20.90
2022-10-22T20:44:53.365Z,24.50
2022-10-22T20:47:34.194Z,21.80
2022-10-22T20:50:16.553Z,24.20
2022-10-22T20:52:48.267Z,20.80
2022-10-22T20:55:21.433Z,20.20
2022-10-22T20:57:53.364Z,22.00
2022-10-22T21:00:25.116Z,20.10
2022-10-22T21:02:58.307Z,20.50
2022-10-22T21:05:30.074Z,19.20
2022-10-22T21:08:04.924Z,19.90
2022-10-22T21:10:36.980Z,20.60
2022-10-22T21:13:08.707Z,20.90
2022-10-22T21:15:40.433Z,23.60
2022-10-22T21:18:12.180Z,20.60
2022-10-22T21:20:44.281Z,21.40
2022-10-22T21:23:15.971Z,19.90
2022-10-22T21:25:58.665Z,20.20
2022-10-22T21:31:09.897Z,20.40
2022-10-22T21:33:42.032Z,19.90
2022-10-22T21:36:13.699Z,20.40
2022-10-22T21:38:45.603Z,19.40
2022-10-22T21:41:19.844Z,19.60
2022-10-22T21:43:51.820Z,22.80
2022-10-22T21:46:25.710Z,22.50
2022-10-22T21:48:59.281Z,24.30
2022-10-22T21:51:32.103Z,24.70
2022-10-22T21:54:04.068Z,25.70
2022-10-22T21:56:37.780Z,25.20
2022-10-22T21:59:10.098Z,27.10
2022-10-22T22:01:41.852Z,25.40
2022-10-22T22:04:13.599Z,28.40
2022-10-22T22:06:45.393Z,27.40
2022-10-22T22:09:18.268Z,24.00
2022-10-22T22:11:50.037Z,26.30
2022-10-22T22:14:21.770Z,26.70
2022-10-22T22:16:53.519Z,29.50
2022-10-22T22:19:25.206Z,29.60
2022-10-22T22:21:56.991Z,29.40
2022-10-22T22:24:29.079Z,29.70
2022-10-22T22:27:00.740Z,30.10
2022-10-22T22:29:32.454Z,29.80
2022-10-22T22:32:04.579Z,31.50
2022-10-22T22:34:36.256Z,32.20
2022-10-22T22:37:08.698Z,32.80
2022-10-22T22:39:40.429Z,33.20
2022-10-22T22:42:12.095Z,30.90
2022-10-22T22:44:44.287Z,33.90
2022-10-22T22:47:15.941Z,35.00
2022-10-22T22:49:47.585Z,31.70
2022-10-22T22:54:55.882Z,31.00
2022-10-22T22:57:29.822Z,31.70
2022-10-22T23:00:01.551Z,27.40
2022-10-22T23:02:33.248Z,33.10
2022-10-22T23:05:05.201Z,29.70
2022-10-22T23:07:36.900Z,28.80
2022-10-22T23:10:09.790Z,28.10
2022-10-22T23:12:41.759Z,26.70
2022-10-22T23:15:16.996Z,27.40
2022-10-22T23:17:48.655Z,27.50
2022-10-22T23:20:20.595Z,25.90
2022-10-22T23:22:52.273Z,26.00
2022-10-22T23:25:23.940Z,24.40
2022-10-22T23:27:56.422Z,24.30
2022-10-22T23:30:28.154Z,26.00
2022-10-22T23:32:59.867Z,34.30
2022-10-22T23:35:31.541Z,29.20
2022-10-22T23:38:03.186Z,30.30
2022-10-22T23:40:34.897Z,29.90
2022-10-22T23:43:08.615Z,30.90
2022-10-22T23:45:40.296Z,30.70
2022-10-22T23:48:11.933Z,29.50
2022-10-22T23:50:43.687Z,30.20
2022-10-22T23:53:17.910Z,30.30
2022-10-22T23:55:49.874Z,31.10
2022-10-22T23:58:21.584Z,29.70
